sensor_id;sensor_type;location;lat;lon;timestamp;P1;durP1;ratioP1;P2;durP2;ratioP2
66626;SDS011;53498;50.422;14.912;2023-02-15T00:01:46;45.58;;;21.58;;
66626;SDS011;53498;50.422;14.912;2023-02-15T00:04:12;50.53;;;22.08;;
66626;SDS011;53498;50.422;14.912;2023-02-15T00:06:39;45.20;;;20.90;;
66626;SDS011;53498;50.422;14.912;2023-02-15T00:09:05;44.10;;;20.70;;
66626;SDS011;53498;50.422;14.912;2023-02-15T00:11:31;43.08;;;22.13;;
66626;SDS011;53498;50.422;14.912;2023-02-15T00:14:06;42.10;;;20.58;;
66626;SDS011;53498;50.422;14.912;2023-02-15T00:16:33;42.85;;;19.88;;
66626;SDS011;53498;50.422;14.912;2023-02-15T00:18:59;42.15;;;19.25;;
66626;SDS011;53498;50.422;14.912;2023-02-15T00:21:31;43.50;;;21.92;;
66626;SDS011;53498;50.422;14.912;2023-02-15T00:23:58;43.35;;;20.45;;
66626;SDS011;53498;50.422;14.912;2023-02-15T00:26:25;44.85;;;22.27;;
66626;SDS011;53498;50.422;14.912;2023-02-15T00:28:51;42.95;;;21.08;;
66626;SDS011;53498;50.422;14.912;2023-02-15T00:31:17;43.42;;;20.33;;
66626;SDS011;53498;50.422;14.912;2023-02-15T00:33:43;49.30;;;19.85;;
66626;SDS011;53498;50.422;14.912;2023-02-15T00:36:09;37.97;;;19.02;;
66626;SDS011;53498;50.422;14.912;2023-02-15T00:38:35;40.90;;;20.13;;
66626;SDS011;53498;50.422;14.912;2023-02-15T00:41:03;40.08;;;19.35;;
66626;SDS011;53498;50.422;14.912;2023-02-15T00:43:30;36.35;;;19.20;;
66626;SDS011;53498;50.422;14.912;2023-02-15T00:45:56;40.38;;;18.75;;
66626;SDS011;53498;50.422;14.912;2023-02-15T00:48:22;39.20;;;20.65;;
66626;SDS011;53498;50.422;14.912;2023-02-15T00:50:49;33.65;;;17.70;;
66626;SDS011;53498;50.422;14.912;2023-02-15T00:53:20;37.67;;;18.88;;
66626;SDS011;53498;50.422;14.912;2023-02-15T00:55:46;38.42;;;19.40;;
66626;SDS011;53498;50.422;14.912;2023-02-15T00:58:12;40.65;;;19.63;;
66626;SDS011;53498;50.422;14.912;2023-02-15T01:00:45;35.58;;;17.00;;
66626;SDS011;53498;50.422;14.912;2023-02-15T01:03:13;39.55;;;19.00;;
66626;SDS011;53498;50.422;14.912;2023-02-15T01:05:40;44.25;;;20.30;;
66626;SDS011;53498;50.422;14.912;2023-02-15T01:08:05;42.03;;;18.65;;
66626;SDS011;53498;50.422;14.912;2023-02-15T01:10:32;39.53;;;19.10;;
66626;SDS011;53498;50.422;14.912;2023-02-15T01:12:59;37.28;;;18.10;;
66626;SDS011;53498;50.422;14.912;2023-02-15T01:15:24;34.63;;;17.45;;
66626;SDS011;53498;50.422;14.912;2023-02-15T01:17:50;41.05;;;18.30;;
66626;SDS011;53498;50.422;14.912;2023-02-15T01:20:20;40.40;;;18.10;;
66626;SDS011;53498;50.422;14.912;2023-02-15T01:22:46;37.58;;;17.95;;
66626;SDS011;53498;50.422;14.912;2023-02-15T01:25:15;43.55;;;19.80;;
66626;SDS011;53498;50.422;14.912;2023-02-15T01:27:45;33.88;;;18.30;;
66626;SDS011;53498;50.422;14.912;2023-02-15T01:30:11;36.22;;;17.73;;
66626;SDS011;53498;50.422;14.912;2023-02-15T01:32:38;35.65;;;17.40;;
66626;SDS011;53498;50.422;14.912;2023-02-15T01:35:03;38.33;;;18.25;;
66626;SDS011;53498;50.422;14.912;2023-02-15T01:37:30;39.22;;;18.08;;
66626;SDS011;53498;50.422;14.912;2023-02-15T01:39:56;38.53;;;17.25;;
66626;SDS011;53498;50.422;14.912;2023-02-15T01:42:23;35.08;;;18.83;;
66626;SDS011;53498;50.422;14.912;2023-02-15T01:44:50;34.50;;;17.83;;
66626;SDS011;53498;50.422;14.912;2023-02-15T01:47:27;32.95;;;16.58;;
66626;SDS011;53498;50.422;14.912;2023-02-15T01:49:59;37.05;;;16.70;;
66626;SDS011;53498;50.422;14.912;2023-02-15T01:52:50;34.75;;;17.80;;
66626;SDS011;53498;50.422;14.912;2023-02-15T01:55:47;38.55;;;17.45;;
66626;SDS011;53498;50.422;14.912;2023-02-15T01:58:17;31.65;;;16.05;;
66626;SDS011;53498;50.422;14.912;2023-02-15T02:00:45;35.75;;;16.63;;
66626;SDS011;53498;50.422;14.912;2023-02-15T02:03:10;36.00;;;18.52;;
66626;SDS011;53498;50.422;14.912;2023-02-15T02:05:37;33.10;;;17.52;;
66626;SDS011;53498;50.422;14.912;2023-02-15T02:08:03;34.00;;;16.80;;
66626;SDS011;53498;50.422;14.912;2023-02-15T02:10:29;33.83;;;16.27;;
66626;SDS011;53498;50.422;14.912;2023-02-15T02:12:57;34.47;;;17.70;;
66626;SDS011;53498;50.422;14.912;2023-02-15T02:15:30;37.55;;;18.65;;
66626;SDS011;53498;50.422;14.912;2023-02-15T02:18:12;32.00;;;15.27;;
66626;SDS011;53498;50.422;14.912;2023-02-15T02:34:25;33.03;;;15.52;;
66626;SDS011;53498;50.422;14.912;2023-02-15T02:42:43;38.45;;;18.45;;
66626;SDS011;53498;50.422;14.912;2023-02-15T02:45:13;35.75;;;17.02;;
66626;SDS011;53498;50.422;14.912;2023-02-15T02:47:55;36.42;;;17.05;;
66626;SDS011;53498;50.422;14.912;2023-02-15T02:50:29;38.78;;;19.02;;
66626;SDS011;53498;50.422;14.912;2023-02-15T02:52:56;37.17;;;17.42;;
66626;SDS011;53498;50.422;14.912;2023-02-15T02:55:24;38.50;;;18.35;;
66626;SDS011;53498;50.422;14.912;2023-02-15T03:00:38;38.00;;;19.35;;
66626;SDS011;53498;50.422;14.912;2023-02-15T03:03:10;39.63;;;18.67;;
66626;SDS011;53498;50.422;14.912;2023-02-15T03:05:41;41.88;;;19.58;;
66626;SDS011;53498;50.422;14.912;2023-02-15T03:08:12;39.90;;;18.60;;
66626;SDS011;53498;50.422;14.912;2023-02-15T03:10:46;40.22;;;19.00;;
66626;SDS011;53498;50.422;14.912;2023-02-15T03:13:14;40.15;;;19.95;;
66626;SDS011;53498;50.422;14.912;2023-02-15T03:15:40;43.53;;;20.08;;
66626;SDS011;53498;50.422;14.912;2023-02-15T03:18:31;46.38;;;19.65;;
66626;SDS011;53498;50.422;14.912;2023-02-15T03:21:02;37.35;;;19.00;;
66626;SDS011;53498;50.422;14.912;2023-02-15T03:23:30;38.88;;;20.02;;
66626;SDS011;53498;50.422;14.912;2023-02-15T03:26:02;41.00;;;19.98;;
66626;SDS011;53498;50.422;14.912;2023-02-15T03:28:38;41.03;;;18.20;;
66626;SDS011;53498;50.422;14.912;2023-02-15T03:33:46;41.30;;;20.00;;
66626;SDS011;53498;50.422;14.912;2023-02-15T03:36:20;43.38;;;20.85;;
66626;SDS011;53498;50.422;14.912;2023-02-15T03:41:26;46.30;;;20.10;;
66626;SDS011;53498;50.422;14.912;2023-02-15T03:43:59;47.78;;;20.83;;
66626;SDS011;53498;50.422;14.912;2023-02-15T03:46:45;44.22;;;18.88;;
66626;SDS011;53498;50.422;14.912;2023-02-15T03:49:20;45.43;;;20.53;;
66626;SDS011;53498;50.422;14.912;2023-02-15T03:51:50;41.83;;;18.30;;
66626;SDS011;53498;50.422;14.912;2023-02-15T03:57:29;35.55;;;17.17;;
66626;SDS011;53498;50.422;14.912;2023-02-15T04:05:41;40.35;;;19.88;;
66626;SDS011;53498;50.422;14.912;2023-02-15T04:08:07;44.13;;;19.98;;
66626;SDS011;53498;50.422;14.912;2023-02-15T04:10:37;40.55;;;17.70;;
66626;SDS011;53498;50.422;14.912;2023-02-15T04:13:18;44.60;;;19.60;;
66626;SDS011;53498;50.422;14.912;2023-02-15T04:15:48;53.00;;;21.92;;
66626;SDS011;53498;50.422;14.912;2023-02-15T04:18:29;41.20;;;20.73;;
66626;SDS011;53498;50.422;14.912;2023-02-15T04:21:15;44.92;;;21.60;;
66626;SDS011;53498;50.422;14.912;2023-02-15T04:23:59;39.55;;;19.00;;
66626;SDS011;53498;50.422;14.912;2023-02-15T04:26:44;38.78;;;19.23;;
66626;SDS011;53498;50.422;14.912;2023-02-15T04:29:09;44.70;;;19.90;;
66626;SDS011;53498;50.422;14.912;2023-02-15T04:31:35;45.42;;;20.17;;
66626;SDS011;53498;50.422;14.912;2023-02-15T04:34:06;47.47;;;21.48;;
66626;SDS011;53498;50.422;14.912;2023-02-15T04:36:32;47.83;;;18.58;;
66626;SDS011;53498;50.422;14.912;2023-02-15T04:38:57;38.03;;;20.27;;
66626;SDS011;53498;50.422;14.912;2023-02-15T04:41:23;45.28;;;19.92;;
66626;SDS011;53498;50.422;14.912;2023-02-15T04:43:48;40.53;;;18.48;;
66626;SDS011;53498;50.422;14.912;2023-02-15T04:46:14;40.95;;;19.02;;
66626;SDS011;53498;50.422;14.912;2023-02-15T04:48:39;43.33;;;18.10;;
66626;SDS011;53498;50.422;14.912;2023-02-15T04:51:06;43.80;;;19.17;;
66626;SDS011;53498;50.422;14.912;2023-02-15T04:53:31;40.72;;;21.83;;
66626;SDS011;53498;50.422;14.912;2023-02-15T04:55:57;48.47;;;21.17;;
66626;SDS011;53498;50.422;14.912;2023-02-15T04:58:23;52.63;;;18.98;;
66626;SDS011;53498;50.422;14.912;2023-02-15T05:00:48;49.63;;;21.42;;
66626;SDS011;53498;50.422;14.912;2023-02-15T05:03:14;51.45;;;23.58;;
66626;SDS011;53498;50.422;14.912;2023-02-15T05:05:39;47.20;;;20.80;;
66626;SDS011;53498;50.422;14.912;2023-02-15T05:08:05;44.83;;;19.67;;
66626;SDS011;53498;50.422;14.912;2023-02-15T05:10:31;55.92;;;23.15;;
66626;SDS011;53498;50.422;14.912;2023-02-15T05:12:56;45.33;;;21.95;;
66626;SDS011;53498;50.422;14.912;2023-02-15T05:15:22;44.55;;;22.23;;
66626;SDS011;53498;50.422;14.912;2023-02-15T05:17:47;51.53;;;20.67;;
66626;SDS011;53498;50.422;14.912;2023-02-15T05:20:13;56.83;;;23.75;;
66626;SDS011;53498;50.422;14.912;2023-02-15T05:22:39;53.45;;;21.80;;
66626;SDS011;53498;50.422;14.912;2023-02-15T05:25:06;43.13;;;20.23;;
66626;SDS011;53498;50.422;14.912;2023-02-15T05:27:52;44.30;;;19.20;;
66626;SDS011;53498;50.422;14.912;2023-02-15T05:30:37;38.60;;;17.83;;
66626;SDS011;53498;50.422;14.912;2023-02-15T05:33:05;43.72;;;19.20;;
66626;SDS011;53498;50.422;14.912;2023-02-15T05:35:32;41.65;;;19.83;;
66626;SDS011;53498;50.422;14.912;2023-02-15T05:37:57;50.63;;;22.70;;
66626;SDS011;53498;50.422;14.912;2023-02-15T05:40:23;46.42;;;21.85;;
66626;SDS011;53498;50.422;14.912;2023-02-15T05:42:49;52.58;;;23.00;;
66626;SDS011;53498;50.422;14.912;2023-02-15T05:45:14;48.05;;;22.27;;
66626;SDS011;53498;50.422;14.912;2023-02-15T05:47:40;51.67;;;23.48;;
66626;SDS011;53498;50.422;14.912;2023-02-15T05:50:07;47.95;;;21.60;;
66626;SDS011;53498;50.422;14.912;2023-02-15T05:52:33;50.03;;;21.65;;
66626;SDS011;53498;50.422;14.912;2023-02-15T05:54:59;50.03;;;21.10;;
66626;SDS011;53498;50.422;14.912;2023-02-15T05:57:25;48.92;;;21.92;;
66626;SDS011;53498;50.422;14.912;2023-02-15T05:59:51;48.58;;;21.92;;
66626;SDS011;53498;50.422;14.912;2023-02-15T06:02:17;47.83;;;20.38;;
66626;SDS011;53498;50.422;14.912;2023-02-15T06:04:43;41.95;;;19.45;;
66626;SDS011;53498;50.422;14.912;2023-02-15T06:07:09;44.92;;;21.02;;
66626;SDS011;53498;50.422;14.912;2023-02-15T06:09:34;55.47;;;22.60;;
66626;SDS011;53498;50.422;14.912;2023-02-15T06:12:00;49.95;;;22.55;;
66626;SDS011;53498;50.422;14.912;2023-02-15T06:14:25;62.40;;;24.27;;
66626;SDS011;53498;50.422;14.912;2023-02-15T06:16:51;45.58;;;20.42;;
66626;SDS011;53498;50.422;14.912;2023-02-15T06:19:17;56.70;;;22.60;;
66626;SDS011;53498;50.422;14.912;2023-02-15T06:21:42;53.25;;;21.35;;
66626;SDS011;53498;50.422;14.912;2023-02-15T06:24:08;59.50;;;24.38;;
66626;SDS011;53498;50.422;14.912;2023-02-15T06:26:34;53.08;;;22.42;;
66626;SDS011;53498;50.422;14.912;2023-02-15T06:29:00;53.47;;;20.40;;
66626;SDS011;53498;50.422;14.912;2023-02-15T06:31:25;49.92;;;21.95;;
66626;SDS011;53498;50.422;14.912;2023-02-15T06:33:51;55.08;;;20.77;;
66626;SDS011;53498;50.422;14.912;2023-02-15T06:36:16;57.05;;;25.05;;
66626;SDS011;53498;50.422;14.912;2023-02-15T06:38:42;45.50;;;21.92;;
66626;SDS011;53498;50.422;14.912;2023-02-15T06:41:07;48.83;;;20.80;;
66626;SDS011;53498;50.422;14.912;2023-02-15T06:43:33;50.83;;;21.98;;
66626;SDS011;53498;50.422;14.912;2023-02-15T06:45:59;49.50;;;22.58;;
66626;SDS011;53498;50.422;14.912;2023-02-15T06:48:25;52.15;;;21.05;;
66626;SDS011;53498;50.422;14.912;2023-02-15T06:50:51;52.75;;;22.23;;
66626;SDS011;53498;50.422;14.912;2023-02-15T06:53:17;53.70;;;21.67;;
66626;SDS011;53498;50.422;14.912;2023-02-15T06:55:42;53.38;;;21.98;;
66626;SDS011;53498;50.422;14.912;2023-02-15T06:58:08;51.58;;;21.50;;
66626;SDS011;53498;50.422;14.912;2023-02-15T07:00:34;50.47;;;22.27;;
66626;SDS011;53498;50.422;14.912;2023-02-15T07:02:59;60.90;;;23.83;;
66626;SDS011;53498;50.422;14.912;2023-02-15T07:05:26;58.70;;;23.67;;
66626;SDS011;53498;50.422;14.912;2023-02-15T07:07:56;49.15;;;21.83;;
66626;SDS011;53498;50.422;14.912;2023-02-15T07:10:29;55.20;;;22.55;;
66626;SDS011;53498;50.422;14.912;2023-02-15T07:12:54;50.85;;;21.40;;
66626;SDS011;53498;50.422;14.912;2023-02-15T07:15:21;50.33;;;21.55;;
66626;SDS011;53498;50.422;14.912;2023-02-15T07:17:47;46.97;;;22.17;;
66626;SDS011;53498;50.422;14.912;2023-02-15T07:20:15;51.75;;;21.75;;
66626;SDS011;53498;50.422;14.912;2023-02-15T07:22:45;58.10;;;22.10;;
66626;SDS011;53498;50.422;14.912;2023-02-15T07:25:11;49.45;;;21.05;;
66626;SDS011;53498;50.422;14.912;2023-02-15T07:27:37;57.28;;;22.17;;
66626;SDS011;53498;50.422;14.912;2023-02-15T07:30:04;53.75;;;22.50;;
66626;SDS011;53498;50.422;14.912;2023-02-15T07:32:31;54.10;;;22.60;;
66626;SDS011;53498;50.422;14.912;2023-02-15T07:34:58;54.97;;;22.35;;
66626;SDS011;53498;50.422;14.912;2023-02-15T07:37:24;44.22;;;19.23;;
66626;SDS011;53498;50.422;14.912;2023-02-15T07:39:51;55.13;;;20.33;;
66626;SDS011;53498;50.422;14.912;2023-02-15T07:42:17;44.92;;;18.88;;
66626;SDS011;53498;50.422;14.912;2023-02-15T07:44:44;53.38;;;23.92;;
66626;SDS011;53498;50.422;14.912;2023-02-15T07:47:10;51.92;;;22.20;;
66626;SDS011;53498;50.422;14.912;2023-02-15T07:49:37;53.35;;;21.23;;
66626;SDS011;53498;50.422;14.912;2023-02-15T07:52:03;60.30;;;23.88;;
66626;SDS011;53498;50.422;14.912;2023-02-15T07:54:29;50.83;;;23.42;;
66626;SDS011;53498;50.422;14.912;2023-02-15T07:56:55;61.30;;;24.92;;
66626;SDS011;53498;50.422;14.912;2023-02-15T07:59:21;59.65;;;25.33;;
66626;SDS011;53498;50.422;14.912;2023-02-15T08:01:47;57.30;;;23.13;;
66626;SDS011;53498;50.422;14.912;2023-02-15T08:04:13;45.10;;;20.40;;
66626;SDS011;53498;50.422;14.912;2023-02-15T08:06:38;53.97;;;22.73;;
66626;SDS011;53498;50.422;14.912;2023-02-15T08:09:06;60.33;;;22.52;;
66626;SDS011;53498;50.422;14.912;2023-02-15T08:11:34;55.38;;;21.92;;
66626;SDS011;53498;50.422;14.912;2023-02-15T08:19:12;55.10;;;22.10;;
66626;SDS011;53498;50.422;14.912;2023-02-15T08:21:50;59.03;;;23.70;;
66626;SDS011;53498;50.422;14.912;2023-02-15T08:24:24;58.22;;;25.08;;
66626;SDS011;53498;50.422;14.912;2023-02-15T08:26:52;48.72;;;22.02;;
66626;SDS011;53498;50.422;14.912;2023-02-15T08:29:22;52.90;;;20.50;;
66626;SDS011;53498;50.422;14.912;2023-02-15T08:31:49;51.08;;;23.20;;
66626;SDS011;53498;50.422;14.912;2023-02-15T08:34:18;56.13;;;22.45;;
66626;SDS011;53498;50.422;14.912;2023-02-15T08:36:45;50.88;;;20.67;;
66626;SDS011;53498;50.422;14.912;2023-02-15T08:39:11;50.78;;;21.58;;
66626;SDS011;53498;50.422;14.912;2023-02-15T08:41:44;60.38;;;21.17;;
66626;SDS011;53498;50.422;14.912;2023-02-15T08:44:10;52.05;;;22.13;;
66626;SDS011;53498;50.422;14.912;2023-02-15T08:46:37;54.85;;;22.25;;
66626;SDS011;53498;50.422;14.912;2023-02-15T08:49:06;54.13;;;23.05;;
66626;SDS011;53498;50.422;14.912;2023-02-15T08:51:34;55.75;;;22.13;;
66626;SDS011;53498;50.422;14.912;2023-02-15T08:54:02;51.63;;;22.75;;
66626;SDS011;53498;50.422;14.912;2023-02-15T08:56:32;52.70;;;22.15;;
66626;SDS011;53498;50.422;14.912;2023-02-15T08:58:59;63.92;;;24.40;;
66626;SDS011;53498;50.422;14.912;2023-02-15T09:01:27;57.60;;;22.80;;
66626;SDS011;53498;50.422;14.912;2023-02-15T09:04:04;53.45;;;23.45;;
66626;SDS011;53498;50.422;14.912;2023-02-15T09:06:34;53.70;;;20.83;;
66626;SDS011;53498;50.422;14.912;2023-02-15T09:09:00;62.65;;;24.55;;
66626;SDS011;53498;50.422;14.912;2023-02-15T09:11:29;58.78;;;24.10;;
66626;SDS011;53498;50.422;14.912;2023-02-15T09:16:26;49.22;;;20.70;;
66626;SDS011;53498;50.422;14.912;2023-02-15T09:18:53;49.42;;;21.77;;
66626;SDS011;53498;50.422;14.912;2023-02-15T09:21:20;51.20;;;18.27;;
66626;SDS011;53498;50.422;14.912;2023-02-15T09:23:48;47.53;;;20.52;;
66626;SDS011;53498;50.422;14.912;2023-02-15T09:26:15;55.30;;;21.08;;
66626;SDS011;53498;50.422;14.912;2023-02-15T09:28:43;52.75;;;21.33;;
66626;SDS011;53498;50.422;14.912;2023-02-15T09:31:16;54.33;;;20.63;;
66626;SDS011;53498;50.422;14.912;2023-02-15T09:33:44;46.17;;;21.55;;
66626;SDS011;53498;50.422;14.912;2023-02-15T09:38:44;51.75;;;20.35;;
66626;SDS011;53498;50.422;14.912;2023-02-15T09:44:09;50.22;;;20.70;;
66626;SDS011;53498;50.422;14.912;2023-02-15T10:03:40;46.78;;;17.40;;
66626;SDS011;53498;50.422;14.912;2023-02-15T10:17:42;43.80;;;18.48;;
66626;SDS011;53498;50.422;14.912;2023-02-15T10:20:27;48.85;;;19.25;;
66626;SDS011;53498;50.422;14.912;2023-02-15T10:28:50;46.20;;;17.83;;
66626;SDS011;53498;50.422;14.912;2023-02-15T10:34:18;51.05;;;19.95;;
66626;SDS011;53498;50.422;14.912;2023-02-15T10:42:34;45.80;;;17.88;;
66626;SDS011;53498;50.422;14.912;2023-02-15T10:47:56;44.05;;;19.08;;
66626;SDS011;53498;50.422;14.912;2023-02-15T10:51:05;46.92;;;19.65;;
66626;SDS011;53498;50.422;14.912;2023-02-15T10:54:09;46.70;;;20.02;;
